Aérodrome :
LOGIN :

S'inscrire | Disclaimer

   EN    FR    IT 

 










Légende :    VFR   VFR Marginal   IFR   IFR Intensif   IFR Très Intensif
Visi : 
Plafond : 
>= 8 km
>= 3000ft
5 à 8 km
1000 à 3000 ft
1500m à 5 km
500 à 1000 ft
800 à 1500m
200 à 500 ft
< 800m
< 200 ft
Symboles :   Orages  Brouillard  Fortes neiges  Fortes précipitations  Vent > 20 kt
SIGMETs :   Divers  Orages  Givrage  Turbulence  Onde Orograph.  Cendres Volcan.







- Altitude de l'aérodrome : 1367 ft
- Code IATA : FDH


EDNY - Friedrichshafen

DERNIER METAR :
  • 261220Z 26009KT 230V300 9999 -SHRA BKN029 OVC035 15/11 Q1013

METARs EXPIRÉS :
  • 261150Z 26009KT 230V290 9999 FEW020 OVC031 16/12 Q1013
  • 261120Z 25013KT 9999 SCT023 BKN031 OVC056 16/12 Q1013
  • 261050Z 25012KT 220V280 9999 BKN025 OVC052 15/12 Q1012
  • 261020Z 25012KT 9999 SCT015 BKN026 OVC052 15/12 Q1012
  • 260950Z 25014KT 9999 SCT014 BKN051 OVC067 14/12 Q1012

TAF TAF EDNY
Valide du 26 à 12h jusqu'au 27 à 12h UTC


261100Z 2612/2712 25015G25KT 9999 BKN025
TEMPO 2612/2614 3000 RA BKN009
BECMG 2616/2618 22005KT
TEMPO 2704/2708 4000 RADZ BKN012
BECMG 2708/2710 25010KT
Pas de NOTAMs connus pour ce terrain.



MET'MAP, la Météo Aéronautique d'un coup d'oeil ! - Copyright ORBIFLY Décembre 2007 - Disclaimer

ORBIFLY MET'MAP TEAM :

Programmation & Développement : Alexandra Zaïnal
Conception & Développement : Baudouin d'Aumeries
Co-Programmation & Développement : Marc-Olivier Méhu
Soutien technique & logistique : Manuel Goepfert

Contact : metmap@orbifly.com




SOURCES & CREDITS :

   NOAA